sensor_id;sensor_type;location;lat;lon;timestamp;pressure;altitude;pressure_sealevel;temperature;humidity
42727;BME280;28372;56.832;60.658;2023-05-19T00:01:30;98749.69;;;10.09;35.70
42727;BME280;28372;56.832;60.658;2023-05-19T00:03:58;98755.16;;;10.12;35.50
42727;BME280;28372;56.832;60.658;2023-05-19T00:06:30;98761.56;;;9.92;36.36
42727;BME280;28372;56.832;60.658;2023-05-19T00:09:04;98755.56;;;9.99;35.96
42727;BME280;28372;56.832;60.658;2023-05-19T00:11:33;98757.47;;;9.98;36.30
42727;BME280;28372;56.832;60.658;2023-05-19T00:14:04;98757.81;;;9.97;35.95
42727;BME280;28372;56.832;60.658;2023-05-19T00:16:33;98759.13;;;9.74;36.42
42727;BME280;28372;56.832;60.658;2023-05-19T00:19:02;98762.50;;;9.71;36.40
42727;BME280;28372;56.832;60.658;2023-05-19T00:21:31;98762.19;;;9.60;36.36
42727;BME280;28372;56.832;60.658;2023-05-19T00:23:59;98759.03;;;9.71;36.36
42727;BME280;28372;56.832;60.658;2023-05-19T00:26:26;98760.00;;;9.78;36.06
42727;BME280;28372;56.832;60.658;2023-05-19T00:29:00;98759.09;;;9.87;36.21
42727;BME280;28372;56.832;60.658;2023-05-19T00:31:28;98759.09;;;9.87;35.75
42727;BME280;28372;56.832;60.658;2023-05-19T00:33:57;98763.44;;;9.63;36.27
42727;BME280;28372;56.832;60.658;2023-05-19T00:36:25;98754.97;;;9.77;35.89
42727;BME280;28372;56.832;60.658;2023-05-19T00:38:55;98750.75;;;9.92;35.63
42727;BME280;28372;56.832;60.658;2023-05-19T00:41:23;98761.75;;;9.99;35.13
42727;BME280;28372;56.832;60.658;2023-05-19T00:43:51;98768.69;;;10.12;34.73
42727;BME280;28372;56.832;60.658;2023-05-19T00:46:19;98762.47;;;9.96;35.02
42727;BME280;28372;56.832;60.658;2023-05-19T00:48:47;98767.50;;;9.98;35.55
42727;BME280;28372;56.832;60.658;2023-05-19T00:51:15;98754.06;;;9.73;35.65
42727;BME280;28372;56.832;60.658;2023-05-19T00:53:45;98759.25;;;9.66;35.70
42727;BME280;28372;56.832;60.658;2023-05-19T00:56:16;98764.56;;;9.62;35.93
42727;BME280;28372;56.832;60.658;2023-05-19T00:58:44;98752.00;;;9.54;35.93
42727;BME280;28372;56.832;60.658;2023-05-19T01:01:13;98747.22;;;9.63;35.54
42727;BME280;28372;56.832;60.658;2023-05-19T01:03:43;98754.63;;;9.78;35.19
42727;BME280;28372;56.832;60.658;2023-05-19T01:06:13;98742.00;;;9.83;35.24
42727;BME280;28372;56.832;60.658;2023-05-19T01:08:41;98759.78;;;9.84;35.66
42727;BME280;28372;56.832;60.658;2023-05-19T01:11:08;98747.72;;;9.93;35.01
42727;BME280;28372;56.832;60.658;2023-05-19T01:13:37;98747.03;;;9.97;35.51
42727;BME280;28372;56.832;60.658;2023-05-19T01:24:52;98748.34;;;10.31;35.34
42727;BME280;28372;56.832;60.658;2023-05-19T01:27:42;98758.75;;;10.17;35.20
42727;BME280;28372;56.832;60.658;2023-05-19T01:30:39;98759.41;;;10.26;35.29
42727;BME280;28372;56.832;60.658;2023-05-19T01:33:11;98761.03;;;10.15;35.46
42727;BME280;28372;56.832;60.658;2023-05-19T01:35:42;98752.13;;;10.14;35.37
42727;BME280;28372;56.832;60.658;2023-05-19T01:38:10;98764.69;;;10.35;35.16
42727;BME280;28372;56.832;60.658;2023-05-19T01:40:40;98755.88;;;10.38;35.16
42727;BME280;28372;56.832;60.658;2023-05-19T01:43:18;98756.69;;;10.54;34.89
42727;BME280;28372;56.832;60.658;2023-05-19T01:45:47;98766.81;;;10.57;34.43
42727;BME280;28372;56.832;60.658;2023-05-19T01:48:16;98748.31;;;10.59;35.06
42727;BME280;28372;56.832;60.658;2023-05-19T01:50:44;98767.34;;;10.63;34.55
42727;BME280;28372;56.832;60.658;2023-05-19T01:53:12;98734.53;;;10.65;34.41
42727;BME280;28372;56.832;60.658;2023-05-19T01:55:46;98750.16;;;10.71;34.28
42727;BME280;28372;56.832;60.658;2023-05-19T01:58:46;98754.09;;;10.74;33.85
42727;BME280;28372;56.832;60.658;2023-05-19T02:01:31;98750.84;;;10.84;34.23
42727;BME280;28372;56.832;60.658;2023-05-19T02:07:02;98771.19;;;11.10;33.60
42727;BME280;28372;56.832;60.658;2023-05-19T02:09:52;98758.88;;;11.12;33.37
42727;BME280;28372;56.832;60.658;2023-05-19T02:12:26;98763.06;;;10.94;33.39
42727;BME280;28372;56.832;60.658;2023-05-19T02:15:04;98770.84;;;11.11;33.82
42727;BME280;28372;56.832;60.658;2023-05-19T02:17:35;98753.47;;;11.12;33.69
42727;BME280;28372;56.832;60.658;2023-05-19T02:20:05;98765.84;;;11.13;33.56
42727;BME280;28372;56.832;60.658;2023-05-19T02:22:33;98756.56;;;11.30;33.42
42727;BME280;28372;56.832;60.658;2023-05-19T02:25:01;98763.50;;;11.28;33.67
42727;BME280;28372;56.832;60.658;2023-05-19T02:27:33;98747.47;;;11.39;33.46
42727;BME280;28372;56.832;60.658;2023-05-19T02:30:02;98768.69;;;11.53;33.22
42727;BME280;28372;56.832;60.658;2023-05-19T02:32:32;98760.56;;;11.53;32.53
42727;BME280;28372;56.832;60.658;2023-05-19T02:34:59;98765.00;;;11.61;32.49
42727;BME280;28372;56.832;60.658;2023-05-19T02:37:28;98758.00;;;11.60;33.05
42727;BME280;28372;56.832;60.658;2023-05-19T02:39:56;98770.69;;;11.75;32.22
42727;BME280;28372;56.832;60.658;2023-05-19T02:42:23;98756.50;;;11.98;31.89
42727;BME280;28372;56.832;60.658;2023-05-19T02:44:53;98769.97;;;12.14;31.93
42727;BME280;28372;56.832;60.658;2023-05-19T02:47:21;98768.34;;;12.29;31.78
42727;BME280;28372;56.832;60.658;2023-05-19T02:49:48;98756.16;;;12.42;31.21
42727;BME280;28372;56.832;60.658;2023-05-19T02:52:16;98765.59;;;12.72;29.90
42727;BME280;28372;56.832;60.658;2023-05-19T02:54:44;98761.63;;;13.15;30.27
42727;BME280;28372;56.832;60.658;2023-05-19T02:57:11;98754.84;;;13.82;28.78
42727;BME280;28372;56.832;60.658;2023-05-19T02:59:39;98763.84;;;14.58;28.10
42727;BME280;28372;56.832;60.658;2023-05-19T03:02:07;98765.50;;;15.15;26.42
42727;BME280;28372;56.832;60.658;2023-05-19T03:04:35;98761.59;;;15.71;25.67
42727;BME280;28372;56.832;60.658;2023-05-19T03:07:08;98765.34;;;16.33;25.54
42727;BME280;28372;56.832;60.658;2023-05-19T03:09:36;98768.19;;;17.02;24.89
42727;BME280;28372;56.832;60.658;2023-05-19T03:12:05;98774.38;;;17.53;23.62
42727;BME280;28372;56.832;60.658;2023-05-19T03:14:34;98762.22;;;17.68;23.21
42727;BME280;28372;56.832;60.658;2023-05-19T03:17:04;98778.97;;;17.99;22.56
42727;BME280;28372;56.832;60.658;2023-05-19T03:19:34;98787.03;;;18.35;22.38
42727;BME280;28372;56.832;60.658;2023-05-19T03:22:02;98764.16;;;18.63;21.96
42727;BME280;28372;56.832;60.658;2023-05-19T03:24:32;98753.31;;;19.05;21.66
42727;BME280;28372;56.832;60.658;2023-05-19T03:27:01;98772.94;;;19.42;21.08
42727;BME280;28372;56.832;60.658;2023-05-19T03:29:31;98763.72;;;19.59;20.93
42727;BME280;28372;56.832;60.658;2023-05-19T03:31:59;98750.16;;;19.87;20.33
42727;BME280;28372;56.832;60.658;2023-05-19T03:34:28;98766.97;;;20.19;20.18
42727;BME280;28372;56.832;60.658;2023-05-19T03:36:56;98759.75;;;20.60;20.18
42727;BME280;28372;56.832;60.658;2023-05-19T03:39:24;98766.63;;;21.23;19.38
42727;BME280;28372;56.832;60.658;2023-05-19T03:41:52;98759.50;;;21.89;18.85
42727;BME280;28372;56.832;60.658;2023-05-19T03:44:20;98776.47;;;22.08;18.30
42727;BME280;28372;56.832;60.658;2023-05-19T03:46:48;98769.72;;;22.29;18.05
42727;BME280;28372;56.832;60.658;2023-05-19T03:49:54;98755.59;;;22.80;17.56
42727;BME280;28372;56.832;60.658;2023-05-19T03:52:40;98766.16;;;23.31;17.15
42727;BME280;28372;56.832;60.658;2023-05-19T03:55:34;98753.16;;;23.61;16.49
42727;BME280;28372;56.832;60.658;2023-05-19T03:58:05;98743.03;;;23.71;16.73
42727;BME280;28372;56.832;60.658;2023-05-19T04:00:35;98751.25;;;23.58;16.30
42727;BME280;28372;56.832;60.658;2023-05-19T04:03:03;98758.50;;;23.39;16.85
42727;BME280;28372;56.832;60.658;2023-05-19T04:05:33;98771.13;;;23.23;17.00
42727;BME280;28372;56.832;60.658;2023-05-19T04:08:01;98752.66;;;23.20;17.16
42727;BME280;28372;56.832;60.658;2023-05-19T04:10:28;98750.09;;;24.01;16.81
42727;BME280;28372;56.832;60.658;2023-05-19T04:12:56;98753.22;;;24.80;16.03
42727;BME280;28372;56.832;60.658;2023-05-19T04:15:25;98753.34;;;25.60;15.53
42727;BME280;28372;56.832;60.658;2023-05-19T04:17:53;98750.69;;;26.00;15.00
42727;BME280;28372;56.832;60.658;2023-05-19T04:20:20;98741.28;;;25.98;15.14
42727;BME280;28372;56.832;60.658;2023-05-19T04:22:49;98765.50;;;26.29;14.78
42727;BME280;28372;56.832;60.658;2023-05-19T04:25:17;98772.56;;;26.30;13.98
42727;BME280;28372;56.832;60.658;2023-05-19T04:27:46;98785.94;;;26.00;14.60
42727;BME280;28372;56.832;60.658;2023-05-19T04:30:15;98754.19;;;25.47;14.88
42727;BME280;28372;56.832;60.658;2023-05-19T04:32:49;98763.41;;;24.84;15.06
42727;BME280;28372;56.832;60.658;2023-05-19T04:35:17;98757.53;;;24.94;15.27
42727;BME280;28372;56.832;60.658;2023-05-19T04:37:47;98742.03;;;24.97;15.27
42727;BME280;28372;56.832;60.658;2023-05-19T04:40:17;98749.84;;;25.11;14.93
42727;BME280;28372;56.832;60.658;2023-05-19T04:42:47;98751.81;;;25.59;15.09
42727;BME280;28372;56.832;60.658;2023-05-19T04:45:16;98752.19;;;25.70;15.38
42727;BME280;28372;56.832;60.658;2023-05-19T04:47:48;98741.06;;;26.05;15.23
42727;BME280;28372;56.832;60.658;2023-05-19T04:50:15;98744.13;;;26.39;14.89
42727;BME280;28372;56.832;60.658;2023-05-19T04:52:43;98756.50;;;27.15;14.25
42727;BME280;28372;56.832;60.658;2023-05-19T04:55:14;98744.84;;;27.48;13.43
42727;BME280;28372;56.832;60.658;2023-05-19T04:57:43;98770.72;;;28.10;13.54
42727;BME280;28372;56.832;60.658;2023-05-19T05:00:11;98746.25;;;28.57;12.94
42727;BME280;28372;56.832;60.658;2023-05-19T05:02:51;98779.13;;;28.77;12.86
42727;BME280;28372;56.832;60.658;2023-05-19T05:05:20;98768.47;;;28.76;12.76
42727;BME280;28372;56.832;60.658;2023-05-19T05:07:48;98757.66;;;28.68;12.53
42727;BME280;28372;56.832;60.658;2023-05-19T05:10:16;98760.28;;;28.72;12.35
42727;BME280;28372;56.832;60.658;2023-05-19T05:12:45;98738.19;;;28.68;11.79
42727;BME280;28372;56.832;60.658;2023-05-19T05:15:14;98739.91;;;28.66;12.57
42727;BME280;28372;56.832;60.658;2023-05-19T05:17:44;98760.66;;;28.55;12.43
42727;BME280;28372;56.832;60.658;2023-05-19T05:20:12;98743.41;;;28.42;12.54
42727;BME280;28372;56.832;60.658;2023-05-19T05:22:41;98756.66;;;28.47;12.38
42727;BME280;28372;56.832;60.658;2023-05-19T05:25:09;98741.47;;;28.91;12.24
42727;BME280;28372;56.832;60.658;2023-05-19T05:27:37;98737.97;;;29.05;11.99
42727;BME280;28372;56.832;60.658;2023-05-19T05:30:07;98756.16;;;28.67;12.20
42727;BME280;28372;56.832;60.658;2023-05-19T05:32:36;98745.56;;;27.86;12.40
42727;BME280;28372;56.832;60.658;2023-05-19T05:35:10;98756.53;;;27.99;12.78
42727;BME280;28372;56.832;60.658;2023-05-19T05:37:38;98760.69;;;27.85;12.88
42727;BME280;28372;56.832;60.658;2023-05-19T05:40:07;98764.41;;;27.73;12.05
42727;BME280;28372;56.832;60.658;2023-05-19T05:42:35;98759.94;;;27.66;12.51
42727;BME280;28372;56.832;60.658;2023-05-19T05:45:02;98733.81;;;28.10;12.87
42727;BME280;28372;56.832;60.658;2023-05-19T05:47:31;98748.91;;;28.51;12.37
42727;BME280;28372;56.832;60.658;2023-05-19T05:49:59;98760.50;;;28.93;11.93
42727;BME280;28372;56.832;60.658;2023-05-19T05:52:31;98741.72;;;29.17;11.51
42727;BME280;28372;56.832;60.658;2023-05-19T05:54:59;98745.31;;;29.18;11.47
42727;BME280;28372;56.832;60.658;2023-05-19T05:57:30;98722.13;;;29.12;11.87
42727;BME280;28372;56.832;60.658;2023-05-19T05:59:58;98767.28;;;29.16;11.68
42727;BME280;28372;56.832;60.658;2023-05-19T06:02:26;98721.59;;;29.22;11.95
42727;BME280;28372;56.832;60.658;2023-05-19T06:04:57;98740.09;;;29.50;11.50
42727;BME280;28372;56.832;60.658;2023-05-19T06:07:24;98720.81;;;29.22;11.31
42727;BME280;28372;56.832;60.658;2023-05-19T06:09:52;98733.41;;;28.93;11.47
42727;BME280;28372;56.832;60.658;2023-05-19T06:12:20;98724.06;;;29.20;11.63
42727;BME280;28372;56.832;60.658;2023-05-19T06:14:49;98721.13;;;29.24;11.71
42727;BME280;28372;56.832;60.658;2023-05-19T06:17:34;98740.78;;;29.60;11.30
42727;BME280;28372;56.832;60.658;2023-05-19T06:20:03;98725.72;;;29.96;11.10
42727;BME280;28372;56.832;60.658;2023-05-19T06:22:35;98734.31;;;30.07;10.80
42727;BME280;28372;56.832;60.658;2023-05-19T06:25:05;98757.84;;;29.92;10.32
42727;BME280;28372;56.832;60.658;2023-05-19T06:27:35;98749.09;;;30.14;10.45
42727;BME280;28372;56.832;60.658;2023-05-19T06:30:03;98724.44;;;30.27;10.57
42727;BME280;28372;56.832;60.658;2023-05-19T06:32:37;98729.66;;;30.19;10.61
42727;BME280;28372;56.832;60.658;2023-05-19T06:35:07;98732.06;;;30.27;10.84
42727;BME280;28372;56.832;60.658;2023-05-19T06:37:34;98726.44;;;30.41;10.60
42727;BME280;28372;56.832;60.658;2023-05-19T06:40:02;98735.13;;;30.29;10.52
42727;BME280;28372;56.832;60.658;2023-05-19T06:42:32;98708.00;;;30.14;10.48
42727;BME280;28372;56.832;60.658;2023-05-19T06:45:13;98729.84;;;30.16;10.33
42727;BME280;28372;56.832;60.658;2023-05-19T06:47:41;98717.19;;;30.00;10.76
42727;BME280;28372;56.832;60.658;2023-05-19T06:50:10;98729.56;;;30.14;10.81
42727;BME280;28372;56.832;60.658;2023-05-19T06:52:40;98694.06;;;30.14;10.06
42727;BME280;28372;56.832;60.658;2023-05-19T06:55:09;98758.03;;;30.33;10.23
42727;BME280;28372;56.832;60.658;2023-05-19T06:57:37;98708.81;;;30.15;10.54
42727;BME280;28372;56.832;60.658;2023-05-19T07:00:06;98718.16;;;29.97;10.67
42727;BME280;28372;56.832;60.658;2023-05-19T07:02:43;98719.47;;;30.16;10.41
42727;BME280;28372;56.832;60.658;2023-05-19T07:05:11;98709.63;;;30.36;10.49
42727;BME280;28372;56.832;60.658;2023-05-19T07:07:39;98685.09;;;30.61;10.33
42727;BME280;28372;56.832;60.658;2023-05-19T07:10:12;98694.97;;;30.41;10.37
42727;BME280;28372;56.832;60.658;2023-05-19T07:12:40;98691.59;;;30.52;10.23
42727;BME280;28372;56.832;60.658;2023-05-19T07:15:08;98707.22;;;30.44;9.98
42727;BME280;28372;56.832;60.658;2023-05-19T07:17:37;98681.25;;;30.22;10.17
42727;BME280;28372;56.832;60.658;2023-05-19T07:20:05;98696.00;;;30.23;10.26
42727;BME280;28372;56.832;60.658;2023-05-19T07:22:33;98691.28;;;30.14;9.93
42727;BME280;28372;56.832;60.658;2023-05-19T07:25:01;98699.38;;;30.12;9.89
42727;BME280;28372;56.832;60.658;2023-05-19T07:27:31;98695.16;;;29.87;10.08
42727;BME280;28372;56.832;60.658;2023-05-19T07:29:59;98710.91;;;28.82;10.46
42727;BME280;28372;56.832;60.658;2023-05-19T07:32:27;98705.19;;;28.18;10.88
42727;BME280;28372;56.832;60.658;2023-05-19T07:34:54;98666.75;;;26.91;11.42
42727;BME280;28372;56.832;60.658;2023-05-19T07:37:22;98682.56;;;26.22;12.00
42727;BME280;28372;56.832;60.658;2023-05-19T07:39:50;98668.38;;;26.10;11.50
42727;BME280;28372;56.832;60.658;2023-05-19T07:42:17;98673.16;;;25.34;12.49
42727;BME280;28372;56.832;60.658;2023-05-19T07:44:45;98684.13;;;25.25;12.57
42727;BME280;28372;56.832;60.658;2023-05-19T07:47:13;98715.72;;;24.54;13.08
42727;BME280;28372;56.832;60.658;2023-05-19T07:49:40;98664.88;;;24.25;13.22
42727;BME280;28372;56.832;60.658;2023-05-19T07:52:08;98686.16;;;23.73;13.92
42727;BME280;28372;56.832;60.658;2023-05-19T07:54:35;98684.66;;;23.56;14.55
42727;BME280;28372;56.832;60.658;2023-05-19T07:57:03;98672.72;;;23.17;14.64
42727;BME280;28372;56.832;60.658;2023-05-19T07:59:31;98670.56;;;23.67;14.44
42727;BME280;28372;56.832;60.658;2023-05-19T08:01:59;98666.38;;;23.75;14.34
42727;BME280;28372;56.832;60.658;2023-05-19T08:04:26;98672.91;;;23.81;14.85
42727;BME280;28372;56.832;60.658;2023-05-19T08:06:54;98654.97;;;23.73;14.87
42727;BME280;28372;56.832;60.658;2023-05-19T08:09:22;98662.16;;;23.83;15.15
42727;BME280;28372;56.832;60.658;2023-05-19T08:11:49;98658.84;;;23.75;15.45
42727;BME280;28372;56.832;60.658;2023-05-19T08:14:17;98662.00;;;22.73;16.73
42727;BME280;28372;56.832;60.658;2023-05-19T08:16:45;98654.47;;;22.90;16.51
42727;BME280;28372;56.832;60.658;2023-05-19T08:19:13;98643.41;;;22.61;16.94
42727;BME280;28372;56.832;60.658;2023-05-19T08:21:41;98657.28;;;22.57;17.05
42727;BME280;28372;56.832;60.658;2023-05-19T08:24:08;98661.34;;;21.99;17.93
42727;BME280;28372;56.832;60.658;2023-05-19T08:26:36;98664.13;;;22.32;17.91
42727;BME280;28372;56.832;60.658;2023-05-19T08:29:04;98652.97;;;22.39;18.13
42727;BME280;28372;56.832;60.658;2023-05-19T08:31:32;98648.66;;;22.22;18.17
42727;BME280;28372;56.832;60.658;2023-05-19T08:34:01;98632.28;;;22.31;18.09
42727;BME280;28372;56.832;60.658;2023-05-19T08:36:29;98656.03;;;22.25;18.51
42727;BME280;28372;56.832;60.658;2023-05-19T08:38:57;98642.03;;;22.36;18.37
42727;BME280;28372;56.832;60.658;2023-05-19T08:41:24;98647.75;;;22.08;18.76
42727;BME280;28372;56.832;60.658;2023-05-19T08:43:53;98626.13;;;21.90;19.02
42727;BME280;28372;56.832;60.658;2023-05-19T08:46:20;98631.72;;;21.87;19.38
42727;BME280;28372;56.832;60.658;2023-05-19T08:48:53;98640.25;;;21.93;19.15
42727;BME280;28372;56.832;60.658;2023-05-19T08:51:32;98647.91;;;22.01;19.39
42727;BME280;28372;56.832;60.658;2023-05-19T08:54:13;98677.06;;;21.62;19.87
42727;BME280;28372;56.832;60.658;2023-05-19T08:56:43;98635.69;;;21.46;19.64
42727;BME280;28372;56.832;60.658;2023-05-19T08:59:12;98636.75;;;21.32;20.00
42727;BME280;28372;56.832;60.658;2023-05-19T09:01:44;98629.56;;;21.58;19.80
42727;BME280;28372;56.832;60.658;2023-05-19T09:04:15;98642.88;;;21.19;20.30
42727;BME280;28372;56.832;60.658;2023-05-19T09:06:43;98637.59;;;21.09;20.29
42727;BME280;28372;56.832;60.658;2023-05-19T09:09:11;98664.00;;;20.82;20.98
42727;BME280;28372;56.832;60.658;2023-05-19T09:11:39;98644.84;;;20.99;20.86
42727;BME280;28372;56.832;60.658;2023-05-19T09:14:06;98629.69;;;20.91;20.72
42727;BME280;28372;56.832;60.658;2023-05-19T09:16:34;98659.25;;;20.83;20.51
42727;BME280;28372;56.832;60.658;2023-05-19T09:19:02;98638.28;;;20.45;21.63
42727;BME280;28372;56.832;60.658;2023-05-19T09:21:31;98641.91;;;20.39;21.32
42727;BME280;28372;56.832;60.658;2023-05-19T09:24:06;98643.38;;;20.47;21.12
42727;BME280;28372;56.832;60.658;2023-05-19T09:26:38;98636.34;;;20.18;21.74
42727;BME280;28372;56.832;60.658;2023-05-19T09:29:14;98641.72;;;20.26;21.74
42727;BME280;28372;56.832;60.658;2023-05-19T09:31:49;98632.34;;;19.96;21.70
42727;BME280;28372;56.832;60.658;2023-05-19T09:34:18;98658.06;;;19.78;22.32
42727;BME280;28372;56.832;60.658;2023-05-19T09:36:47;98638.78;;;19.85;22.02
42727;BME280;28372;56.832;60.658;2023-05-19T09:39:22;98628.41;;;19.97;21.88
42727;BME280;28372;56.832;60.658;2023-05-19T09:41:53;98628.47;;;20.20;21.62
42727;BME280;28372;56.832;60.658;2023-05-19T09:44:23;98623.09;;;20.13;22.16
42727;BME280;28372;56.832;60.658;2023-05-19T09:46:56;98622.81;;;20.31;22.07
42727;BME280;28372;56.832;60.658;2023-05-19T09:49:29;98622.09;;;20.00;21.82
42727;BME280;28372;56.832;60.658;2023-05-19T09:52:01;98622.31;;;19.85;22.04
42727;BME280;28372;56.832;60.658;2023-05-19T09:54:29;98614.91;;;19.82;22.19
42727;BME280;28372;56.832;60.658;2023-05-19T09:57:04;98631.28;;;19.90;22.36
42727;BME280;28372;56.832;60.658;2023-05-19T09:59:35;98618.69;;;19.92;22.08
42727;BME280;28372;56.832;60.658;2023-05-19T10:02:14;98623.44;;;19.88;21.78
42727;BME280;28372;56.832;60.658;2023-05-19T10:04:43;98638.63;;;19.65;21.96
42727;BME280;28372;56.832;60.658;2023-05-19T10:07:13;98615.72;;;19.79;21.90
42727;BME280;28372;56.832;60.658;2023-05-19T10:09:42;98612.47;;;19.57;22.58
42727;BME280;28372;56.832;60.658;2023-05-19T10:12:11;98625.38;;;19.57;21.93
42727;BME280;28372;56.832;60.658;2023-05-19T10:14:39;98627.59;;;19.69;21.95
42727;BME280;28372;56.832;60.658;2023-05-19T10:17:08;98600.97;;;19.66;22.05
42727;BME280;28372;56.832;60.658;2023-05-19T10:19:39;98620.41;;;19.48;22.46
42727;BME280;28372;56.832;60.658;2023-05-19T10:22:07;98602.66;;;19.25;22.89
42727;BME280;28372;56.832;60.658;2023-05-19T10:24:35;98586.44;;;19.38;22.59
42727;BME280;28372;56.832;60.658;2023-05-19T10:27:09;98605.72;;;19.62;22.40
42727;BME280;28372;56.832;60.658;2023-05-19T10:29:44;98586.09;;;19.63;22.32
42727;BME280;28372;56.832;60.658;2023-05-19T10:32:21;98591.16;;;19.68;22.50
42727;BME280;28372;56.832;60.658;2023-05-19T10:35:07;98610.59;;;19.50;22.12
42727;BME280;28372;56.832;60.658;2023-05-19T10:37:45;98594.00;;;19.61;22.12
42727;BME280;28372;56.832;60.658;2023-05-19T10:40:27;98595.50;;;19.35;22.43
42727;BME280;28372;56.832;60.658;2023-05-19T10:43:18;98598.00;;;19.53;22.14
42727;BME280;28372;56.832;60.658;2023-05-19T10:45:53;98577.94;;;19.60;21.87
42727;BME280;28372;56.832;60.658;2023-05-19T10:48:21;98585.13;;;19.77;21.27
42727;BME280;28372;56.832;60.658;2023-05-19T10:50:53;98592.16;;;19.82;20.80
42727;BME280;28372;56.832;60.658;2023-05-19T10:53:29;98591.50;;;19.71;21.03
42727;BME280;28372;56.832;60.658;2023-05-19T10:55:58;98589.78;;;19.22;21.70
42727;BME280;28372;56.832;60.658;2023-05-19T11:01:13;98606.47;;;19.35;21.65
42727;BME280;28372;56.832;60.658;2023-05-19T11:03:47;98590.28;;;19.44;21.41
42727;BME280;28372;56.832;60.658;2023-05-19T11:06:19;98577.94;;;19.60;20.71
42727;BME280;28372;56.832;60.658;2023-05-19T11:08:52;98589.13;;;19.73;20.54
42727;BME280;28372;56.832;60.658;2023-05-19T11:11:20;98561.81;;;19.62;20.60
42727;BME280;28372;56.832;60.658;2023-05-19T11:13:51;98574.00;;;19.61;20.53
42727;BME280;28372;56.832;60.658;2023-05-19T11:16:28;98585.34;;;19.63;20.77
42727;BME280;28372;56.832;60.658;2023-05-19T11:18:59;98614.72;;;19.31;21.24
42727;BME280;28372;56.832;60.658;2023-05-19T11:21:49;98581.69;;;19.42;21.25
42727;BME280;28372;56.832;60.658;2023-05-19T11:24:35;98585.69;;;19.34;21.04
42727;BME280;28372;56.832;60.658;2023-05-19T11:27:24;98574.19;;;19.46;20.73
42727;BME280;28372;56.832;60.658;2023-05-19T11:29:54;98582.22;;;19.30;21.14
42727;BME280;28372;56.832;60.658;2023-05-19T11:32:28;98557.09;;;19.62;20.70
42727;BME280;28372;56.832;60.658;2023-05-19T11:34:57;98557.44;;;19.68;20.54
42727;BME280;28372;56.832;60.658;2023-05-19T11:37:25;98580.91;;;19.42;20.88
42727;BME280;28372;56.832;60.658;2023-05-19T11:39:53;98564.81;;;19.44;20.95
42727;BME280;28372;56.832;60.658;2023-05-19T11:42:21;98580.63;;;19.32;20.96
42727;BME280;28372;56.832;60.658;2023-05-19T11:44:49;98559.81;;;19.39;20.95
42727;BME280;28372;56.832;60.658;2023-05-19T11:47:16;98558.44;;;19.23;20.77
42727;BME280;28372;56.832;60.658;2023-05-19T11:49:47;98563.72;;;19.38;21.04
42727;BME280;28372;56.832;60.658;2023-05-19T11:52:15;98591.28;;;19.27;21.36
42727;BME280;28372;56.832;60.658;2023-05-19T11:54:47;98574.63;;;19.10;21.27
42727;BME280;28372;56.832;60.658;2023-05-19T11:57:15;98560.56;;;19.08;21.41
42727;BME280;28372;56.832;60.658;2023-05-19T11:59:43;98562.16;;;19.06;21.52
42727;BME280;28372;56.832;60.658;2023-05-19T12:04:40;98553.94;;;19.37;21.42
42727;BME280;28372;56.832;60.658;2023-05-19T12:07:10;98565.41;;;19.28;21.72
42727;BME280;28372;56.832;60.658;2023-05-19T12:09:38;98545.91;;;19.22;21.84
42727;BME280;28372;56.832;60.658;2023-05-19T12:12:06;98565.09;;;19.22;22.08
42727;BME280;28372;56.832;60.658;2023-05-19T12:14:34;98583.69;;;19.38;21.64
42727;BME280;28372;56.832;60.658;2023-05-19T12:17:17;98558.03;;;19.25;21.90
42727;BME280;28372;56.832;60.658;2023-05-19T12:19:47;98567.78;;;19.26;21.63
42727;BME280;28372;56.832;60.658;2023-05-19T12:22:16;98556.81;;;19.26;21.58
42727;BME280;28372;56.832;60.658;2023-05-19T12:24:45;98557.09;;;19.35;21.32
42727;BME280;28372;56.832;60.658;2023-05-19T12:27:17;98556.97;;;19.46;20.54
42727;BME280;28372;56.832;60.658;2023-05-19T12:29:49;98556.97;;;19.46;20.60
42727;BME280;28372;56.832;60.658;2023-05-19T12:32:24;98542.03;;;19.47;20.37
42727;BME280;28372;56.832;60.658;2023-05-19T12:34:55;98564.13;;;19.36;20.40
42727;BME280;28372;56.832;60.658;2023-05-19T12:37:26;98553.53;;;19.38;20.24
42727;BME280;28372;56.832;60.658;2023-05-19T12:39:56;98561.97;;;19.20;20.84
42727;BME280;28372;56.832;60.658;2023-05-19T12:42:28;98554.69;;;19.37;20.73
42727;BME280;28372;56.832;60.658;2023-05-19T12:45:01;98559.31;;;19.13;20.93
42727;BME280;28372;56.832;60.658;2023-05-19T12:47:34;98565.59;;;19.13;21.42
42727;BME280;28372;56.832;60.658;2023-05-19T12:50:04;98570.94;;;19.24;21.27
42727;BME280;28372;56.832;60.658;2023-05-19T12:52:39;98584.19;;;18.95;21.15
42727;BME280;28372;56.832;60.658;2023-05-19T12:55:08;98577.50;;;18.99;21.16
42727;BME280;28372;56.832;60.658;2023-05-19T12:57:41;98570.81;;;19.00;21.35
42727;BME280;28372;56.832;60.658;2023-05-19T13:00:14;98566.13;;;19.01;21.25
42727;BME280;28372;56.832;60.658;2023-05-19T13:02:59;98574.28;;;19.05;21.39
42727;BME280;28372;56.832;60.658;2023-05-19T13:05:29;98578.59;;;19.06;21.49
42727;BME280;28372;56.832;60.658;2023-05-19T13:08:05;98586.25;;;18.87;21.47
42727;BME280;28372;56.832;60.658;2023-05-19T13:10:36;98585.56;;;18.76;21.42
42727;BME280;28372;56.832;60.658;2023-05-19T13:13:04;98582.34;;;18.81;21.58
42727;BME280;28372;56.832;60.658;2023-05-19T13:15:35;98579.34;;;18.72;21.87
42727;BME280;28372;56.832;60.658;2023-05-19T13:18:06;98591.13;;;18.65;21.93
42727;BME280;28372;56.832;60.658;2023-05-19T13:20:36;98602.31;;;18.43;22.40
42727;BME280;28372;56.832;60.658;2023-05-19T13:23:04;98601.81;;;18.52;21.95
42727;BME280;28372;56.832;60.658;2023-05-19T13:25:33;98598.75;;;18.46;21.94